sensor_id;sensor_type;location;lat;lon;timestamp;temperature;humidity
10530;DHT22;5313;48.834;9.228;2022-12-10T00:00:35;1.80;99.90
10530;DHT22;5313;48.834;9.228;2022-12-10T00:03:00;1.80;99.90
10530;DHT22;5313;48.834;9.228;2022-12-10T00:05:26;2.40;99.90
10530;DHT22;5313;48.834;9.228;2022-12-10T00:07:52;1.80;99.90
10530;DHT22;5313;48.834;9.228;2022-12-10T00:10:18;1.80;99.90
10530;DHT22;5313;48.834;9.228;2022-12-10T00:12:43;1.80;99.90
10530;DHT22;5313;48.834;9.228;2022-12-10T00:15:09;1.80;99.90
10530;DHT22;5313;48.834;9.228;2022-12-10T00:17:35;1.80;99.90
10530;DHT22;5313;48.834;9.228;2022-12-10T00:20:00;1.70;99.90
10530;DHT22;5313;48.834;9.228;2022-12-10T00:22:26;1.70;99.90
10530;DHT22;5313;48.834;9.228;2022-12-10T00:24:51;1.70;99.90
10530;DHT22;5313;48.834;9.228;2022-12-10T00:27:17;1.70;99.90
10530;DHT22;5313;48.834;9.228;2022-12-10T00:29:42;1.70;99.90
10530;DHT22;5313;48.834;9.228;2022-12-10T00:32:08;1.70;99.90
10530;DHT22;5313;48.834;9.228;2022-12-10T00:34:34;1.70;99.90
10530;DHT22;5313;48.834;9.228;2022-12-10T00:36:59;1.70;99.90
10530;DHT22;5313;48.834;9.228;2022-12-10T00:39:26;1.70;99.90
10530;DHT22;5313;48.834;9.228;2022-12-10T00:41:52;1.60;99.90
10530;DHT22;5313;48.834;9.228;2022-12-10T00:44:17;1.70;99.90
10530;DHT22;5313;48.834;9.228;2022-12-10T00:46:43;1.70;99.90
10530;DHT22;5313;48.834;9.228;2022-12-10T00:49:09;1.70;99.90
10530;DHT22;5313;48.834;9.228;2022-12-10T00:51:35;1.60;99.90
10530;DHT22;5313;48.834;9.228;2022-12-10T00:54:00;1.70;99.90
10530;DHT22;5313;48.834;9.228;2022-12-10T00:56:28;1.70;99.90
10530;DHT22;5313;48.834;9.228;2022-12-10T00:58:54;1.70;99.90
10530;DHT22;5313;48.834;9.228;2022-12-10T01:03:53;1.70;99.90
10530;DHT22;5313;48.834;9.228;2022-12-10T01:06:25;1.80;99.90
10530;DHT22;5313;48.834;9.228;2022-12-10T01:08:53;1.70;99.90
10530;DHT22;5313;48.834;9.228;2022-12-10T01:11:20;1.70;99.90
10530;DHT22;5313;48.834;9.228;2022-12-10T01:13:47;1.70;99.90
10530;DHT22;5313;48.834;9.228;2022-12-10T01:16:15;1.70;99.90
10530;DHT22;5313;48.834;9.228;2022-12-10T01:18:41;1.70;99.90
10530;DHT22;5313;48.834;9.228;2022-12-10T01:21:10;1.70;99.90
10530;DHT22;5313;48.834;9.228;2022-12-10T01:23:37;1.70;99.90
10530;DHT22;5313;48.834;9.228;2022-12-10T01:26:12;1.70;99.90
10530;DHT22;5313;48.834;9.228;2022-12-10T01:28:39;1.70;99.90
10530;DHT22;5313;48.834;9.228;2022-12-10T01:31:20;1.70;99.90
10530;DHT22;5313;48.834;9.228;2022-12-10T01:33:47;1.70;99.90
10530;DHT22;5313;48.834;9.228;2022-12-10T01:36:17;1.70;99.90
10530;DHT22;5313;48.834;9.228;2022-12-10T01:38:43;1.70;99.90
10530;DHT22;5313;48.834;9.228;2022-12-10T01:41:15;1.70;99.90
10530;DHT22;5313;48.834;9.228;2022-12-10T01:46:18;1.60;99.90
10530;DHT22;5313;48.834;9.228;2022-12-10T01:48:44;1.60;99.90
10530;DHT22;5313;48.834;9.228;2022-12-10T01:51:11;1.70;99.90
10530;DHT22;5313;48.834;9.228;2022-12-10T01:53:37;1.60;99.90
10530;DHT22;5313;48.834;9.228;2022-12-10T01:56:03;1.70;99.90
10530;DHT22;5313;48.834;9.228;2022-12-10T01:58:29;1.70;99.90
10530;DHT22;5313;48.834;9.228;2022-12-10T02:01:06;1.80;99.90
10530;DHT22;5313;48.834;9.228;2022-12-10T02:03:52;1.70;99.90
10530;DHT22;5313;48.834;9.228;2022-12-10T02:06:28;1.70;99.90
10530;DHT22;5313;48.834;9.228;2022-12-10T02:09:04;1.70;99.90
10530;DHT22;5313;48.834;9.228;2022-12-10T02:11:47;1.80;99.90
10530;DHT22;5313;48.834;9.228;2022-12-10T02:14:25;1.80;99.90
10530;DHT22;5313;48.834;9.228;2022-12-10T02:17:11;1.90;99.90
10530;DHT22;5313;48.834;9.228;2022-12-10T02:22:13;1.70;99.90
10530;DHT22;5313;48.834;9.228;2022-12-10T02:24:39;1.70;99.90
10530;DHT22;5313;48.834;9.228;2022-12-10T02:27:13;1.70;99.90
10530;DHT22;5313;48.834;9.228;2022-12-10T02:29:43;1.70;99.90
10530;DHT22;5313;48.834;9.228;2022-12-10T02:32:23;1.60;99.90
10530;DHT22;5313;48.834;9.228;2022-12-10T02:34:54;1.60;99.90
10530;DHT22;5313;48.834;9.228;2022-12-10T02:37:30;1.60;99.90
10530;DHT22;5313;48.834;9.228;2022-12-10T02:39:59;1.50;99.90
10530;DHT22;5313;48.834;9.228;2022-12-10T02:42:26;1.60;99.90
10530;DHT22;5313;48.834;9.228;2022-12-10T02:44:56;1.60;99.90
10530;DHT22;5313;48.834;9.228;2022-12-10T02:47:22;1.60;99.90
10530;DHT22;5313;48.834;9.228;2022-12-10T02:49:51;1.60;99.90
10530;DHT22;5313;48.834;9.228;2022-12-10T02:52:19;1.60;99.90
10530;DHT22;5313;48.834;9.228;2022-12-10T02:54:47;1.50;99.90
10530;DHT22;5313;48.834;9.228;2022-12-10T03:00:18;1.50;99.90
10530;DHT22;5313;48.834;9.228;2022-12-10T03:03:00;1.50;99.90
10530;DHT22;5313;48.834;9.228;2022-12-10T03:08:40;1.40;99.90
10530;DHT22;5313;48.834;9.228;2022-12-10T03:11:12;1.30;99.90
10530;DHT22;5313;48.834;9.228;2022-12-10T03:14:02;1.40;99.90
10530;DHT22;5313;48.834;9.228;2022-12-10T03:16:33;1.30;99.90
10530;DHT22;5313;48.834;9.228;2022-12-10T03:19:04;1.20;99.90
10530;DHT22;5313;48.834;9.228;2022-12-10T03:21:32;1.30;99.90
10530;DHT22;5313;48.834;9.228;2022-12-10T03:24:00;1.20;99.90
10530;DHT22;5313;48.834;9.228;2022-12-10T03:26:26;1.20;99.90
10530;DHT22;5313;48.834;9.228;2022-12-10T03:29:00;1.20;99.90
10530;DHT22;5313;48.834;9.228;2022-12-10T03:31:29;1.40;99.90
10530;DHT22;5313;48.834;9.228;2022-12-10T03:33:55;1.50;99.90
10530;DHT22;5313;48.834;9.228;2022-12-10T03:36:21;1.40;99.90
10530;DHT22;5313;48.834;9.228;2022-12-10T03:38:48;1.40;99.90
10530;DHT22;5313;48.834;9.228;2022-12-10T03:41:14;1.40;99.90
10530;DHT22;5313;48.834;9.228;2022-12-10T03:43:50;1.30;99.90
10530;DHT22;5313;48.834;9.228;2022-12-10T03:46:16;1.20;99.90
10530;DHT22;5313;48.834;9.228;2022-12-10T03:48:41;1.20;99.90
10530;DHT22;5313;48.834;9.228;2022-12-10T03:51:07;1.30;99.90
10530;DHT22;5313;48.834;9.228;2022-12-10T03:53:32;1.30;99.90
10530;DHT22;5313;48.834;9.228;2022-12-10T03:55:58;1.30;99.90
10530;DHT22;5313;48.834;9.228;2022-12-10T03:58:23;1.40;99.90
10530;DHT22;5313;48.834;9.228;2022-12-10T04:00:49;1.40;99.90
10530;DHT22;5313;48.834;9.228;2022-12-10T04:03:15;1.40;99.90
10530;DHT22;5313;48.834;9.228;2022-12-10T04:05:41;1.40;99.90
10530;DHT22;5313;48.834;9.228;2022-12-10T04:08:06;1.40;99.90
10530;DHT22;5313;48.834;9.228;2022-12-10T04:10:35;1.40;99.90
10530;DHT22;5313;48.834;9.228;2022-12-10T04:13:01;1.40;99.90
10530;DHT22;5313;48.834;9.228;2022-12-10T04:15:45;1.50;99.90
10530;DHT22;5313;48.834;9.228;2022-12-10T04:18:29;1.50;99.90
10530;DHT22;5313;48.834;9.228;2022-12-10T04:20:55;1.50;99.90
10530;DHT22;5313;48.834;9.228;2022-12-10T04:23:39;1.50;99.90
10530;DHT22;5313;48.834;9.228;2022-12-10T04:26:23;1.60;99.90
10530;DHT22;5313;48.834;9.228;2022-12-10T04:29:07;1.60;99.90
10530;DHT22;5313;48.834;9.228;2022-12-10T04:31:34;1.60;99.90
10530;DHT22;5313;48.834;9.228;2022-12-10T04:33:59;1.60;99.90
10530;DHT22;5313;48.834;9.228;2022-12-10T04:36:25;1.50;99.90
10530;DHT22;5313;48.834;9.228;2022-12-10T04:38:50;1.50;99.90
10530;DHT22;5313;48.834;9.228;2022-12-10T04:41:16;1.60;99.90
10530;DHT22;5313;48.834;9.228;2022-12-10T04:43:42;1.60;99.90
10530;DHT22;5313;48.834;9.228;2022-12-10T04:46:09;1.50;99.90
10530;DHT22;5313;48.834;9.228;2022-12-10T04:48:34;1.60;99.90
10530;DHT22;5313;48.834;9.228;2022-12-10T04:51:00;1.60;99.90
10530;DHT22;5313;48.834;9.228;2022-12-10T04:53:26;1.60;99.90
10530;DHT22;5313;48.834;9.228;2022-12-10T04:55:51;1.60;99.90
10530;DHT22;5313;48.834;9.228;2022-12-10T04:58:17;1.60;99.90
10530;DHT22;5313;48.834;9.228;2022-12-10T05:00:42;1.70;99.90
10530;DHT22;5313;48.834;9.228;2022-12-10T05:03:08;1.70;99.90
10530;DHT22;5313;48.834;9.228;2022-12-10T05:05:34;1.70;99.90
10530;DHT22;5313;48.834;9.228;2022-12-10T05:08:00;1.70;99.90
10530;DHT22;5313;48.834;9.228;2022-12-10T05:10:25;1.70;99.90
10530;DHT22;5313;48.834;9.228;2022-12-10T05:12:52;1.60;99.90
10530;DHT22;5313;48.834;9.228;2022-12-10T05:15:17;1.60;99.90
10530;DHT22;5313;48.834;9.228;2022-12-10T05:17:43;1.60;99.90
10530;DHT22;5313;48.834;9.228;2022-12-10T05:20:09;1.70;99.90
10530;DHT22;5313;48.834;9.228;2022-12-10T05:22:34;1.60;99.90
10530;DHT22;5313;48.834;9.228;2022-12-10T05:25:19;1.50;99.90
10530;DHT22;5313;48.834;9.228;2022-12-10T05:27:44;1.40;99.90
10530;DHT22;5313;48.834;9.228;2022-12-10T05:30:11;1.50;99.90
10530;DHT22;5313;48.834;9.228;2022-12-10T05:32:37;1.50;99.90
10530;DHT22;5313;48.834;9.228;2022-12-10T05:35:03;1.40;99.90
10530;DHT22;5313;48.834;9.228;2022-12-10T05:37:29;1.40;99.90
10530;DHT22;5313;48.834;9.228;2022-12-10T05:39:54;1.40;99.90
10530;DHT22;5313;48.834;9.228;2022-12-10T05:42:20;1.40;99.90
10530;DHT22;5313;48.834;9.228;2022-12-10T05:44:45;1.40;99.90
10530;DHT22;5313;48.834;9.228;2022-12-10T05:47:11;1.40;99.90
10530;DHT22;5313;48.834;9.228;2022-12-10T05:49:36;1.40;99.90
10530;DHT22;5313;48.834;9.228;2022-12-10T05:52:02;1.30;99.90
10530;DHT22;5313;48.834;9.228;2022-12-10T05:54:28;1.20;99.90
10530;DHT22;5313;48.834;9.228;2022-12-10T05:56:53;1.20;99.90
10530;DHT22;5313;48.834;9.228;2022-12-10T05:59:19;1.10;99.90
10530;DHT22;5313;48.834;9.228;2022-12-10T06:01:45;1.10;99.90
10530;DHT22;5313;48.834;9.228;2022-12-10T06:04:11;1.20;99.90
10530;DHT22;5313;48.834;9.228;2022-12-10T06:06:38;1.10;99.90
10530;DHT22;5313;48.834;9.228;2022-12-10T06:09:05;1.10;99.90
10530;DHT22;5313;48.834;9.228;2022-12-10T06:11:31;1.10;99.90
10530;DHT22;5313;48.834;9.228;2022-12-10T06:13:57;0.90;99.90
10530;DHT22;5313;48.834;9.228;2022-12-10T06:16:23;1.00;99.90
10530;DHT22;5313;48.834;9.228;2022-12-10T06:18:49;1.00;99.90
10530;DHT22;5313;48.834;9.228;2022-12-10T06:21:15;1.00;99.90
10530;DHT22;5313;48.834;9.228;2022-12-10T06:23:42;1.00;99.90
10530;DHT22;5313;48.834;9.228;2022-12-10T06:26:15;1.00;99.90
10530;DHT22;5313;48.834;9.228;2022-12-10T06:28:41;1.00;99.90
10530;DHT22;5313;48.834;9.228;2022-12-10T06:31:09;1.00;99.90
10530;DHT22;5313;48.834;9.228;2022-12-10T06:33:34;1.00;99.90
10530;DHT22;5313;48.834;9.228;2022-12-10T06:36:03;1.00;99.90
10530;DHT22;5313;48.834;9.228;2022-12-10T06:38:29;0.90;99.90
10530;DHT22;5313;48.834;9.228;2022-12-10T06:40:54;1.00;99.90
10530;DHT22;5313;48.834;9.228;2022-12-10T06:43:20;1.10;99.90
10530;DHT22;5313;48.834;9.228;2022-12-10T06:45:45;1.10;99.90
10530;DHT22;5313;48.834;9.228;2022-12-10T06:48:11;1.10;99.90
10530;DHT22;5313;48.834;9.228;2022-12-10T06:50:36;1.10;99.90
10530;DHT22;5313;48.834;9.228;2022-12-10T06:53:02;1.00;99.90
10530;DHT22;5313;48.834;9.228;2022-12-10T06:55:28;1.00;99.90
10530;DHT22;5313;48.834;9.228;2022-12-10T06:57:54;1.00;99.90
10530;DHT22;5313;48.834;9.228;2022-12-10T07:00:20;1.00;99.90
10530;DHT22;5313;48.834;9.228;2022-12-10T07:02:46;1.00;99.90
10530;DHT22;5313;48.834;9.228;2022-12-10T07:05:12;1.00;99.90
10530;DHT22;5313;48.834;9.228;2022-12-10T07:07:38;1.00;99.90
10530;DHT22;5313;48.834;9.228;2022-12-10T07:10:04;1.00;99.90
10530;DHT22;5313;48.834;9.228;2022-12-10T07:12:30;1.00;99.90
10530;DHT22;5313;48.834;9.228;2022-12-10T07:14:55;1.10;99.90
10530;DHT22;5313;48.834;9.228;2022-12-10T07:17:21;1.00;99.90
10530;DHT22;5313;48.834;9.228;2022-12-10T07:19:46;1.00;99.90
10530;DHT22;5313;48.834;9.228;2022-12-10T07:22:12;1.00;99.90
10530;DHT22;5313;48.834;9.228;2022-12-10T07:24:38;1.10;99.90
10530;DHT22;5313;48.834;9.228;2022-12-10T07:27:07;1.10;99.90
10530;DHT22;5313;48.834;9.228;2022-12-10T07:29:33;1.10;99.90
10530;DHT22;5313;48.834;9.228;2022-12-10T07:31:58;1.10;99.90
10530;DHT22;5313;48.834;9.228;2022-12-10T07:34:24;1.10;99.90
10530;DHT22;5313;48.834;9.228;2022-12-10T07:36:49;1.10;99.90
10530;DHT22;5313;48.834;9.228;2022-12-10T07:39:15;1.20;99.90
10530;DHT22;5313;48.834;9.228;2022-12-10T07:41:47;1.20;99.90
10530;DHT22;5313;48.834;9.228;2022-12-10T07:44:13;1.30;99.90
10530;DHT22;5313;48.834;9.228;2022-12-10T07:46:39;1.40;99.90
10530;DHT22;5313;48.834;9.228;2022-12-10T07:49:04;1.40;99.90
10530;DHT22;5313;48.834;9.228;2022-12-10T07:51:30;1.40;99.90
10530;DHT22;5313;48.834;9.228;2022-12-10T07:53:56;1.40;99.90
10530;DHT22;5313;48.834;9.228;2022-12-10T07:56:23;1.40;99.90
10530;DHT22;5313;48.834;9.228;2022-12-10T07:58:49;1.40;99.90
10530;DHT22;5313;48.834;9.228;2022-12-10T08:01:18;1.30;99.90
10530;DHT22;5313;48.834;9.228;2022-12-10T08:03:44;1.30;99.90
10530;DHT22;5313;48.834;9.228;2022-12-10T08:06:12;1.30;99.90
10530;DHT22;5313;48.834;9.228;2022-12-10T08:08:39;1.40;99.90
10530;DHT22;5313;48.834;9.228;2022-12-10T08:11:05;1.40;99.90
10530;DHT22;5313;48.834;9.228;2022-12-10T08:13:32;1.40;99.90
10530;DHT22;5313;48.834;9.228;2022-12-10T08:16:05;1.30;99.90
10530;DHT22;5313;48.834;9.228;2022-12-10T08:18:32;1.30;99.90
10530;DHT22;5313;48.834;9.228;2022-12-10T08:20:58;1.40;99.90
10530;DHT22;5313;48.834;9.228;2022-12-10T08:23:23;1.50;99.90
10530;DHT22;5313;48.834;9.228;2022-12-10T08:25:49;1.50;99.90
10530;DHT22;5313;48.834;9.228;2022-12-10T08:28:15;1.40;99.90
10530;DHT22;5313;48.834;9.228;2022-12-10T08:30:45;1.40;99.90
10530;DHT22;5313;48.834;9.228;2022-12-10T08:33:11;1.40;99.90
10530;DHT22;5313;48.834;9.228;2022-12-10T08:35:36;1.50;99.90
10530;DHT22;5313;48.834;9.228;2022-12-10T08:38:02;1.50;99.90
10530;DHT22;5313;48.834;9.228;2022-12-10T08:40:27;1.40;99.90
10530;DHT22;5313;48.834;9.228;2022-12-10T08:42:53;1.40;99.90
10530;DHT22;5313;48.834;9.228;2022-12-10T08:45:19;1.50;99.90
10530;DHT22;5313;48.834;9.228;2022-12-10T08:47:44;1.40;99.90
10530;DHT22;5313;48.834;9.228;2022-12-10T08:50:10;1.40;99.90
10530;DHT22;5313;48.834;9.228;2022-12-10T08:52:35;1.40;99.90
10530;DHT22;5313;48.834;9.228;2022-12-10T08:55:01;1.40;99.90
10530;DHT22;5313;48.834;9.228;2022-12-10T08:57:26;1.60;99.90
10530;DHT22;5313;48.834;9.228;2022-12-10T08:59:52;1.50;99.90
10530;DHT22;5313;48.834;9.228;2022-12-10T09:02:17;1.60;99.90
10530;DHT22;5313;48.834;9.228;2022-12-10T09:04:43;1.60;99.90
10530;DHT22;5313;48.834;9.228;2022-12-10T09:07:11;1.60;99.90
10530;DHT22;5313;48.834;9.228;2022-12-10T09:09:37;1.60;99.90
10530;DHT22;5313;48.834;9.228;2022-12-10T09:12:02;1.60;99.90
10530;DHT22;5313;48.834;9.228;2022-12-10T09:14:28;1.60;99.90
10530;DHT22;5313;48.834;9.228;2022-12-10T09:16:53;1.60;99.90
10530;DHT22;5313;48.834;9.228;2022-12-10T09:19:19;1.50;99.90
10530;DHT22;5313;48.834;9.228;2022-12-10T09:21:44;1.60;99.90
10530;DHT22;5313;48.834;9.228;2022-12-10T09:24:10;1.70;99.90
10530;DHT22;5313;48.834;9.228;2022-12-10T09:26:35;1.60;99.90
10530;DHT22;5313;48.834;9.228;2022-12-10T09:29:01;1.60;99.90
10530;DHT22;5313;48.834;9.228;2022-12-10T09:31:27;1.60;99.90
10530;DHT22;5313;48.834;9.228;2022-12-10T09:33:53;1.70;99.90
10530;DHT22;5313;48.834;9.228;2022-12-10T09:36:20;1.70;99.90
10530;DHT22;5313;48.834;9.228;2022-12-10T09:38:47;1.60;99.90
10530;DHT22;5313;48.834;9.228;2022-12-10T09:43:46;1.70;99.90
10530;DHT22;5313;48.834;9.228;2022-12-10T09:46:31;1.70;99.90
10530;DHT22;5313;48.834;9.228;2022-12-10T09:52:14;1.70;99.90
10530;DHT22;5313;48.834;9.228;2022-12-10T09:54:50;1.80;99.90
10530;DHT22;5313;48.834;9.228;2022-12-10T09:57:38;1.90;99.90
10530;DHT22;5313;48.834;9.228;2022-12-10T10:00:54;1.90;99.90
10530;DHT22;5313;48.834;9.228;2022-12-10T10:02:55;1.90;99.90
10530;DHT22;5313;48.834;9.228;2022-12-10T10:08:34;2.10;99.90
10530;DHT22;5313;48.834;9.228;2022-12-10T10:10:59;2.10;99.90
10530;DHT22;5313;48.834;9.228;2022-12-10T10:13:43;2.00;99.90
10530;DHT22;5313;48.834;9.228;2022-12-10T10:19:02;2.10;99.90
10530;DHT22;5313;48.834;9.228;2022-12-10T10:21:34;2.10;99.90
10530;DHT22;5313;48.834;9.228;2022-12-10T10:24:01;2.10;99.90
10530;DHT22;5313;48.834;9.228;2022-12-10T10:26:28;2.10;99.90
10530;DHT22;5313;48.834;9.228;2022-12-10T10:28:57;2.00;99.90
10530;DHT22;5313;48.834;9.228;2022-12-10T10:31:26;2.00;99.90
10530;DHT22;5313;48.834;9.228;2022-12-10T10:33:55;2.10;99.90
10530;DHT22;5313;48.834;9.228;2022-12-10T10:36:40;2.20;99.90
10530;DHT22;5313;48.834;9.228;2022-12-10T10:41:41;2.20;99.90
10530;DHT22;5313;48.834;9.228;2022-12-10T10:44:15;2.20;99.90
10530;DHT22;5313;48.834;9.228;2022-12-10T10:46:42;2.20;99.90
10530;DHT22;5313;48.834;9.228;2022-12-10T10:49:35;2.20;99.90
10530;DHT22;5313;48.834;9.228;2022-12-10T10:52:15;2.20;99.90
10530;DHT22;5313;48.834;9.228;2022-12-10T10:54:43;2.20;99.90
10530;DHT22;5313;48.834;9.228;2022-12-10T10:57:29;2.20;99.90
10530;DHT22;5313;48.834;9.228;2022-12-10T11:00:17;2.20;99.90
10530;DHT22;5313;48.834;9.228;2022-12-10T11:02:44;2.20;99.90
10530;DHT22;5313;48.834;9.228;2022-12-10T11:05:21;2.30;99.90
10530;DHT22;5313;48.834;9.228;2022-12-10T11:08:06;2.40;99.90
10530;DHT22;5313;48.834;9.228;2022-12-10T11:10:50;2.50;99.90
10530;DHT22;5313;48.834;9.228;2022-12-10T11:13:25;2.40;99.90
10530;DHT22;5313;48.834;9.228;2022-12-10T11:18:43;2.40;99.90
10530;DHT22;5313;48.834;9.228;2022-12-10T11:21:19;2.30;99.90
10530;DHT22;5313;48.834;9.228;2022-12-10T11:23:49;2.40;99.90
10530;DHT22;5313;48.834;9.228;2022-12-10T11:37:39;2.40;99.90
10530;DHT22;5313;48.834;9.228;2022-12-10T11:40:38;2.40;99.90
10530;DHT22;5313;48.834;9.228;2022-12-10T11:51:26;2.40;99.90
10530;DHT22;5313;48.834;9.228;2022-12-10T12:00:03;2.50;99.90
10530;DHT22;5313;48.834;9.228;2022-12-10T12:14:43;2.70;99.90
10530;DHT22;5313;48.834;9.228;2022-12-10T12:19:40;2.70;99.90
10530;DHT22;5313;48.834;9.228;2022-12-10T12:22:36;2.60;99.90
10530;DHT22;5313;48.834;9.228;2022-12-10T12:25:05;2.60;99.90
10530;DHT22;5313;48.834;9.228;2022-12-10T12:27:45;2.60;99.90
10530;DHT22;5313;48.834;9.228;2022-12-10T12:30:16;2.70;99.90
10530;DHT22;5313;48.834;9.228;2022-12-10T12:33:04;2.60;99.90
10530;DHT22;5313;48.834;9.228;2022-12-10T12:35:57;2.60;99.90
10530;DHT22;5313;48.834;9.228;2022-12-10T12:41:00;2.60;99.90
10530;DHT22;5313;48.834;9.228;2022-12-10T12:46:09;2.70;99.90
10530;DHT22;5313;48.834;9.228;2022-12-10T12:51:36;2.70;99.90
10530;DHT22;5313;48.834;9.228;2022-12-10T12:54:04;2.70;99.90
10530;DHT22;5313;48.834;9.228;2022-12-10T12:56:59;2.70;99.90
10530;DHT22;5313;48.834;9.228;2022-12-10T13:05:14;2.50;99.90
10530;DHT22;5313;48.834;9.228;2022-12-10T13:07:40;2.70;99.90
10530;DHT22;5313;48.834;9.228;2022-12-10T13:15:20;2.50;99.90
10530;DHT22;5313;48.834;9.228;2022-12-10T13:20:46;2.40;99.90
10530;DHT22;5313;48.834;9.228;2022-12-10T13:31:13;2.60;99.90
10530;DHT22;5313;48.834;9.228;2022-12-10T13:36:36;2.70;99.90
10530;DHT22;5313;48.834;9.228;2022-12-10T13:45:01;2.60;99.90
10530;DHT22;5313;48.834;9.228;2022-12-10T13:50:05;2.60;99.90
10530;DHT22;5313;48.834;9.228;2022-12-10T13:55:25;2.50;99.90
10530;DHT22;5313;48.834;9.228;2022-12-10T14:00:54;2.50;99.90
10530;DHT22;5313;48.834;9.228;2022-12-10T14:03:47;2.40;99.90
10530;DHT22;5313;48.834;9.228;2022-12-10T14:06:20;2.40;99.90
10530;DHT22;5313;48.834;9.228;2022-12-10T14:08:57;2.30;99.90
10530;DHT22;5313;48.834;9.228;2022-12-10T14:11:28;2.20;99.90
10530;DHT22;5313;48.834;9.228;2022-12-10T14:13:57;2.30;99.90
10530;DHT22;5313;48.834;9.228;2022-12-10T14:16:23;2.20;99.90
10530;DHT22;5313;48.834;9.228;2022-12-10T14:18:59;2.20;99.90
10530;DHT22;5313;48.834;9.228;2022-12-10T14:21:25;2.20;99.90
10530;DHT22;5313;48.834;9.228;2022-12-10T14:23:51;2.10;99.90
10530;DHT22;5313;48.834;9.228;2022-12-10T14:26:18;2.20;99.90
10530;DHT22;5313;48.834;9.228;2022-12-10T14:28:59;2.00;99.90
10530;DHT22;5313;48.834;9.228;2022-12-10T14:31:33;1.90;99.90
10530;DHT22;5313;48.834;9.228;2022-12-10T14:34:03;1.90;99.90
10530;DHT22;5313;48.834;9.228;2022-12-10T14:36:37;1.90;99.90
10530;DHT22;5313;48.834;9.228;2022-12-10T14:39:19;1.90;99.90
10530;DHT22;5313;48.834;9.228;2022-12-10T14:41:45;1.90;99.90
10530;DHT22;5313;48.834;9.228;2022-12-10T14:44:14;1.80;99.90
10530;DHT22;5313;48.834;9.228;2022-12-10T14:46:41;1.70;99.90
10530;DHT22;5313;48.834;9.228;2022-12-10T14:49:19;1.70;99.90
10530;DHT22;5313;48.834;9.228;2022-12-10T14:51:45;1.70;99.90
10530;DHT22;5313;48.834;9.228;2022-12-10T14:54:29;1.70;99.90
10530;DHT22;5313;48.834;9.228;2022-12-10T14:57:00;1.70;99.90
10530;DHT22;5313;48.834;9.228;2022-12-10T14:59:31;1.70;99.90
10530;DHT22;5313;48.834;9.228;2022-12-10T15:02:01;1.70;99.90
10530;DHT22;5313;48.834;9.228;2022-12-10T15:04:41;1.70;99.90
10530;DHT22;5313;48.834;9.228;2022-12-10T15:07:19;1.70;99.90
10530;DHT22;5313;48.834;9.228;2022-12-10T15:09:47;1.70;99.90
10530;DHT22;5313;48.834;9.228;2022-12-10T15:14:50;1.80;99.90
10530;DHT22;5313;48.834;9.228;2022-12-10T15:17:37;1.80;99.90
10530;DHT22;5313;48.834;9.228;2022-12-10T15:20:10;1.80;99.90
10530;DHT22;5313;48.834;9.228;2022-12-10T15:22:43;1.80;99.90
10530;DHT22;5313;48.834;9.228;2022-12-10T15:25:24;1.70;99.90
10530;DHT22;5313;48.834;9.228;2022-12-10T15:28:00;1.60;99.90
10530;DHT22;5313;48.834;9.228;2022-12-10T15:30:38;1.50;99.90
10530;DHT22;5313;48.834;9.228;2022-12-10T15:33:21;1.50;99.90
10530;DHT22;5313;48.834;9.228;2022-12-10T15:35:47;1.50;99.90
10530;DHT22;5313;48.834;9.228;2022-12-10T15:38:13;1.50;99.90
10530;DHT22;5313;48.834;9.228;2022-12-10T15:40:39;1.50;99.90
10530;DHT22;5313;48.834;9.228;2022-12-10T15:43:28;1.50;99.90
10530;DHT22;5313;48.834;9.228;2022-12-10T15:45:58;1.50;99.90
10530;DHT22;5313;48.834;9.228;2022-12-10T15:48:28;1.50;99.90
10530;DHT22;5313;48.834;9.228;2022-12-10T15:50:54;1.50;99.90
10530;DHT22;5313;48.834;9.228;2022-12-10T15:53:27;1.40;99.90
10530;DHT22;5313;48.834;9.228;2022-12-10T15:55:54;1.40;99.90
10530;DHT22;5313;48.834;9.228;2022-12-10T15:58:19;1.40;99.90
10530;DHT22;5313;48.834;9.228;2022-12-10T16:00:45;1.30;99.90
10530;DHT22;5313;48.834;9.228;2022-12-10T16:03:14;1.40;99.90
10530;DHT22;5313;48.834;9.228;2022-12-10T16:05:40;1.40;99.90
10530;DHT22;5313;48.834;9.228;2022-12-10T16:08:17;1.40;99.90
10530;DHT22;5313;48.834;9.228;2022-12-10T16:10:44;1.40;99.90
10530;DHT22;5313;48.834;9.228;2022-12-10T16:13:26;1.40;99.90
10530;DHT22;5313;48.834;9.228;2022-12-10T16:15:55;1.30;99.90
10530;DHT22;5313;48.834;9.228;2022-12-10T16:18:23;1.30;99.90
10530;DHT22;5313;48.834;9.228;2022-12-10T16:20:48;1.40;99.90
10530;DHT22;5313;48.834;9.228;2022-12-10T16:23:14;1.40;99.90
10530;DHT22;5313;48.834;9.228;2022-12-10T16:25:41;1.40;99.90
10530;DHT22;5313;48.834;9.228;2022-12-10T16:28:15;1.40;99.90
10530;DHT22;5313;48.834;9.228;2022-12-10T16:33:09;1.50;99.90
10530;DHT22;5313;48.834;9.228;2022-12-10T16:35:35;1.50;99.90
10530;DHT22;5313;48.834;9.228;2022-12-10T16:38:00;1.50;99.90
10530;DHT22;5313;48.834;9.228;2022-12-10T16:40:27;1.40;99.90
10530;DHT22;5313;48.834;9.228;2022-12-10T16:42:53;1.40;99.90
10530;DHT22;5313;48.834;9.228;2022-12-10T16:45:27;1.40;99.90
10530;DHT22;5313;48.834;9.228;2022-12-10T16:47:53;1.40;99.90
10530;DHT22;5313;48.834;9.228;2022-12-10T16:50:20;1.40;99.90
10530;DHT22;5313;48.834;9.228;2022-12-10T16:52:46;1.40;99.90
10530;DHT22;5313;48.834;9.228;2022-12-10T16:55:15;1.40;99.90
10530;DHT22;5313;48.834;9.228;2022-12-10T16:57:41;1.40;99.90
10530;DHT22;5313;48.834;9.228;2022-12-10T17:00:09;1.40;99.90
10530;DHT22;5313;48.834;9.228;2022-12-10T17:02:35;1.40;99.90
10530;DHT22;5313;48.834;9.228;2022-12-10T17:05:00;1.30;99.90
10530;DHT22;5313;48.834;9.228;2022-12-10T17:07:26;1.30;99.90
10530;DHT22;5313;48.834;9.228;2022-12-10T17:09:51;1.20;99.90
10530;DHT22;5313;48.834;9.228;2022-12-10T17:12:17;1.20;99.90
10530;DHT22;5313;48.834;9.228;2022-12-10T17:14:43;1.30;99.90
10530;DHT22;5313;48.834;9.228;2022-12-10T17:17:13;1.30;99.90
10530;DHT22;5313;48.834;9.228;2022-12-10T17:19:39;1.20;99.90
10530;DHT22;5313;48.834;9.228;2022-12-10T17:22:06;1.20;99.90
10530;DHT22;5313;48.834;9.228;2022-12-10T17:24:32;1.30;99.90
10530;DHT22;5313;48.834;9.228;2022-12-10T17:27:13;1.30;99.90
10530;DHT22;5313;48.834;9.228;2022-12-10T17:29:42;1.30;99.90
10530;DHT22;5313;48.834;9.228;2022-12-10T17:32:14;1.20;99.90
10530;DHT22;5313;48.834;9.228;2022-12-10T17:34:40;1.30;99.90
10530;DHT22;5313;48.834;9.228;2022-12-10T17:37:14;1.20;99.90
10530;DHT22;5313;48.834;9.228;2022-12-10T17:39:40;1.20;99.90
10530;DHT22;5313;48.834;9.228;2022-12-10T17:42:05;1.20;99.90
10530;DHT22;5313;48.834;9.228;2022-12-10T17:44:33;1.10;99.90
10530;DHT22;5313;48.834;9.228;2022-12-10T17:46:59;1.10;99.90
10530;DHT22;5313;48.834;9.228;2022-12-10T17:49:26;1.10;99.90
10530;DHT22;5313;48.834;9.228;2022-12-10T17:51:51;1.10;99.90
10530;DHT22;5313;48.834;9.228;2022-12-10T17:54:17;1.00;99.90
10530;DHT22;5313;48.834;9.228;2022-12-10T17:56:43;1.00;99.90
10530;DHT22;5313;48.834;9.228;2022-12-10T17:59:13;1.00;99.90
10530;DHT22;5313;48.834;9.228;2022-12-10T18:01:38;1.00;99.90
10530;DHT22;5313;48.834;9.228;2022-12-10T18:04:04;0.90;99.90
10530;DHT22;5313;48.834;9.228;2022-12-10T18:06:30;0.90;99.90
10530;DHT22;5313;48.834;9.228;2022-12-10T18:08:58;0.90;99.90
10530;DHT22;5313;48.834;9.228;2022-12-10T18:11:33;1.00;99.90
10530;DHT22;5313;48.834;9.228;2022-12-10T18:13:58;1.00;99.90
10530;DHT22;5313;48.834;9.228;2022-12-10T18:16:28;1.00;99.90
10530;DHT22;5313;48.834;9.228;2022-12-10T18:18:56;1.00;99.90